Time;durP1;ratioP1;P1;durP2;ratioP2;P2;SDS_P1;SDS_P2;PMS_P1;PMS_P2;Temp;Humidity;BMP_temperature;BMP_pressure;BME280_temperature;BME280_humidity;BME280_pressure;Samples;Min_cycle;Max_cycle;Signal;HPM_P1;HPM_P2
2022/03/25 00:01:22;;;;;;;;;;;;;;;11.11;32.23;100769.81;4430105;32;20026;-74
2022/03/25 00:03:49;;;;;;;;;;;;;;;11.11;32.94;100767.25;4429853;32;20026;-75
2022/03/25 00:06:17;;;;;;;;;;;;;;;11.05;32.64;100761.88;4444220;32;20024;-74
2022/03/25 00:08:44;;;;;;;;;;;;;;;11.00;33.73;100759.97;4443347;32;20391;-76
2022/03/25 00:11:11;;;;;;;;;;;;;;;10.92;32.80;100762.34;4429433;32;19974;-78
2022/03/25 00:13:38;;;;;;;;;;;;;;;11.05;33.44;100759.28;4443683;32;19993;-75
2022/03/25 00:16:05;;;;;;;;;;;;;;;11.03;33.12;100771.31;4443731;32;19980;-73
2022/03/25 00:18:32;;;;;;;;;;;;;;;10.81;33.62;100764.59;4454917;32;19993;-76
2022/03/25 00:20:59;;;;;;;;;;;;;;;10.64;34.06;100761.50;4443925;32;19988;-77
2022/03/25 00:23:26;;;;;;;;;;;;;;;10.67;33.76;100761.63;4452321;32;20354;-76
2022/03/25 00:25:53;;;;;;;;;;;;;;;10.58;34.40;100761.31;4443597;32;20350;-74
2022/03/25 00:28:20;;;;;;;;;;;;;;;10.64;33.95;100761.50;4442540;32;19989;-74
2022/03/25 00:30:47;;;;;;;;;;;;;;;10.61;33.56;100761.44;4442111;32;19981;-76
2022/03/25 00:33:17;;;;;;;;;;;;;;;10.53;34.16;100752.56;4444087;32;20393;-75
2022/03/25 00:35:44;;;;;;;;;;;;;;;10.56;33.83;100751.75;4444135;32;20405;-74
2022/03/25 00:38:11;;;;;;;;;;;;;;;10.56;33.13;100757.84;4443937;32;20322;-74
2022/03/25 00:40:38;;;;;;;;;;;;;;;10.53;33.83;100762.91;4444056;32;19984;-75
2022/03/25 00:43:06;;;;;;;;;;;;;;;10.29;34.91;100762.13;4442688;32;19985;-75
2022/03/25 00:45:33;;;;;;;;;;;;;;;10.40;34.19;100760.75;4442630;32;20000;-72
2022/03/25 00:48:03;;;;;;;;;;;;;;;10.39;33.85;100764.19;4169114;32;10000179;-73
2022/03/25 00:50:30;;;;;;;;;;;;;;;10.44;33.60;100758.31;4443206;32;20015;-75
2022/03/25 00:52:57;;;;;;;;;;;;;;;10.37;33.17;100755.47;4442319;32;20065;-75
2022/03/25 00:55:26;;;;;;;;;;;;;;;10.34;34.04;100757.97;4443684;32;20001;-75
2022/03/25 00:57:53;;;;;;;;;;;;;;;10.35;33.91;100762.34;4428959;32;20049;-72
2022/03/25 01:00:20;;;;;;;;;;;;;;;10.29;33.40;100751.78;4444311;32;20345;-76
2022/03/25 01:02:47;;;;;;;;;;;;;;;10.23;34.26;100758.47;4443848;32;19992;-73
2022/03/25 01:05:14;;;;;;;;;;;;;;;10.01;34.81;100761.19;4454512;32;20024;-75
2022/03/25 01:07:41;;;;;;;;;;;;;;;9.98;34.84;100750.75;4394474;32;20068;-74
2022/03/25 01:10:08;;;;;;;;;;;;;;;10.10;34.25;100756.31;4426738;32;20037;-76
2022/03/25 01:12:35;;;;;;;;;;;;;;;9.94;34.47;100749.75;4444082;32;20040;-74
2022/03/25 01:15:03;;;;;;;;;;;;;;;10.14;33.42;100753.00;4441380;32;19981;-74
2022/03/25 01:17:30;;;;;;;;;;;;;;;10.06;33.43;100753.59;4441923;32;20418;-76
2022/03/25 01:19:57;;;;;;;;;;;;;;;10.08;34.44;100752.78;4429186;32;19989;-77
2022/03/25 01:22:25;;;;;;;;;;;;;;;9.90;34.64;100752.22;4458620;32;20350;-74
2022/03/25 01:24:52;;;;;;;;;;;;;;;9.85;34.67;100748.59;4450322;32;20027;-75
2022/03/25 01:27:22;;;;;;;;;;;;;;;9.90;34.09;100752.22;4443911;32;19994;-76
2022/03/25 01:29:50;;;;;;;;;;;;;;;9.96;34.13;100758.47;4446386;32;19989;-74
2022/03/25 01:32:17;;;;;;;;;;;;;;;9.86;33.88;100760.69;4459081;32;20308;-74
2022/03/25 01:34:45;;;;;;;;;;;;;;;10.04;33.50;100761.28;4460853;32;20484;-75
2022/03/25 01:37:13;;;;;;;;;;;;;;;9.88;34.73;100753.84;4464295;32;19989;-75
2022/03/25 01:39:40;;;;;;;;;;;;;;;9.85;34.46;100758.94;4449397;32;20000;-74
2022/03/25 01:42:07;;;;;;;;;;;;;;;9.71;35.60;100761.94;4462799;32;19995;-74
2022/03/25 01:44:34;;;;;;;;;;;;;;;9.86;34.91;100765.84;4462610;32;20438;-73
2022/03/25 01:47:02;;;;;;;;;;;;;;;10.01;34.36;100771.53;4463678;32;19981;-75
2022/03/25 01:49:29;;;;;;;;;;;;;;;9.93;33.70;100767.84;4463610;32;20020;-76
2022/03/25 01:52:00;;;;;;;;;;;;;;;9.75;34.74;100763.78;4464119;32;20534;-74
2022/03/25 01:54:31;;;;;;;;;;;;;;;9.65;36.03;100764.31;4462239;32;19993;-73
2022/03/25 01:56:58;;;;;;;;;;;;;;;9.52;35.89;100769.88;4451531;32;20044;-76
2022/03/25 01:59:24;;;;;;;;;;;;;;;9.78;34.23;100768.19;4448290;32;20397;-76
2022/03/25 02:01:54;;;;;;;;;;;;;;;9.88;34.94;100769.37;4451658;32;19980;-76
2022/03/25 02:04:22;;;;;;;;;;;;;;;9.46;35.80;100774.81;4464056;32;19988;-75
2022/03/25 02:06:49;;;;;;;;;;;;;;;9.42;36.29;100778.12;4463840;32;19984;-77
2022/03/25 02:09:16;;;;;;;;;;;;;;;9.39;35.81;100772.84;4464199;32;19973;-76
2022/03/25 02:11:43;;;;;;;;;;;;;;;9.52;35.91;100769.88;4462302;32;20398;-75
2022/03/25 02:14:11;;;;;;;;;;;;;;;9.45;34.78;100767.91;4463955;32;20040;-76
2022/03/25 02:16:42;;;;;;;;;;;;;;;9.67;34.78;100774.72;4463430;32;19985;-74
2022/03/25 02:19:12;;;;;;;;;;;;;;;9.29;35.00;100780.28;4462284;32;19987;-74
2022/03/25 02:21:39;;;;;;;;;;;;;;;9.34;35.67;100784.72;4462007;32;19993;-76
2022/03/25 02:24:07;;;;;;;;;;;;;;;9.40;35.54;100780.66;4448436;32;20014;-71
2022/03/25 02:26:35;;;;;;;;;;;;;;;9.19;36.15;100788.50;4448756;32;20004;-73
2022/03/25 02:29:03;;;;;;;;;;;;;;;9.16;36.13;100785.81;4463680;32;19984;-75
2022/03/25 02:31:30;;;;;;;;;;;;;;;9.25;35.90;100790.41;4463937;32;20008;-75
2022/03/25 02:33:58;;;;;;;;;;;;;;;9.17;36.05;100792.72;4462472;32;19989;-74
2022/03/25 02:36:25;;;;;;;;;;;;;;;9.18;36.19;100789.31;4463253;32;19998;-73
2022/03/25 02:38:51;;;;;;;;;;;;;;;9.03;36.63;100799.06;4463583;32;20000;-74
2022/03/25 02:41:18;;;;;;;;;;;;;;;9.13;36.53;100800.31;4460701;32;20007;-75
2022/03/25 02:43:45;;;;;;;;;;;;;;;8.97;36.79;100809.19;4463745;32;20041;-76
2022/03/25 02:46:12;;;;;;;;;;;;;;;8.91;36.42;100804.66;4461235;32;19997;-76
2022/03/25 02:48:39;;;;;;;;;;;;;;;9.06;36.10;100804.34;4458394;32;20676;-73
2022/03/25 02:51:06;;;;;;;;;;;;;;;9.00;36.30;100806.72;4460364;32;20869;-74
2022/03/25 02:53:33;;;;;;;;;;;;;;;9.07;36.26;100811.28;4456562;32;20000;-74
2022/03/25 02:56:00;;;;;;;;;;;;;;;9.13;36.22;100806.37;4459152;32;20010;-75
2022/03/25 02:58:27;;;;;;;;;;;;;;;8.94;36.87;100811.66;4453580;32;19981;-75
2022/03/25 03:00:53;;;;;;;;;;;;;;;9.18;35.67;100816.84;4426491;32;20397;-75
2022/03/25 03:03:21;;;;;;;;;;;;;;;8.93;36.84;100818.50;4444804;32;20102;-74
2022/03/25 03:05:48;;;;;;;;;;;;;;;9.02;36.04;100820.56;4444538;32;20035;-74
2022/03/25 03:08:15;;;;;;;;;;;;;;;8.99;36.09;100823.03;4444972;32;19985;-76
2022/03/25 03:10:43;;;;;;;;;;;;;;;9.03;36.06;100824.91;4444666;32;20023;-73
2022/03/25 03:13:10;;;;;;;;;;;;;;;9.19;36.49;100824.69;4445162;32;20034;-75
2022/03/25 03:15:37;;;;;;;;;;;;;;;8.94;37.07;100829.72;4444667;32;19995;-75
2022/03/25 03:18:05;;;;;;;;;;;;;;;9.01;36.56;100823.97;4445294;32;20826;-73
2022/03/25 03:20:32;;;;;;;;;;;;;;;8.77;37.58;100827.34;4430435;32;20003;-76
2022/03/25 03:22:59;;;;;;;;;;;;;;;8.71;37.70;100831.41;4445199;32;19992;-77
2022/03/25 03:25:26;;;;;;;;;;;;;;;8.63;37.72;100833.69;4443234;32;20000;-74
2022/03/25 03:27:53;;;;;;;;;;;;;;;8.77;37.34;100837.69;4402634;32;19990;-75
2022/03/25 03:30:20;;;;;;;;;;;;;;;8.54;38.19;100834.19;4427379;32;20281;-75
2022/03/25 03:32:48;;;;;;;;;;;;;;;8.89;36.91;100826.09;4442601;32;20454;-74
2022/03/25 03:35:14;;;;;;;;;;;;;;;8.56;37.74;100826.53;4444801;32;19973;-77
2022/03/25 03:37:42;;;;;;;;;;;;;;;8.49;37.85;100827.09;4444604;32;20005;-76
2022/03/25 03:40:10;;;;;;;;;;;;;;;8.42;38.02;100822.50;4442752;32;19989;-75
2022/03/25 03:42:37;;;;;;;;;;;;;;;8.38;38.07;100826.66;4443062;32;19981;-76
2022/03/25 03:45:05;;;;;;;;;;;;;;;8.32;37.95;100822.09;4444764;32;19985;-74
2022/03/25 03:47:32;;;;;;;;;;;;;;;8.29;38.83;100824.53;4445138;32;20371;-76
2022/03/25 03:49:58;;;;;;;;;;;;;;;8.49;37.85;100825.41;4443345;32;20463;-74
2022/03/25 03:52:26;;;;;;;;;;;;;;;8.28;38.46;100830.53;4444986;32;20730;-74
2022/03/25 03:54:53;;;;;;;;;;;;;;;8.23;38.41;100816.56;4441221;32;20000;-75
2022/03/25 03:57:19;;;;;;;;;;;;;;;8.19;38.34;100835.28;4437285;32;19981;-76
2022/03/25 03:59:46;;;;;;;;;;;;;;;8.29;38.29;100826.25;4445044;32;20037;-74
2022/03/25 04:02:13;;;;;;;;;;;;;;;8.56;37.47;100829.97;4430477;32;19986;-73
2022/03/25 04:04:41;;;;;;;;;;;;;;;8.31;38.44;100825.50;4444152;32;19985;-72
2022/03/25 04:07:07;;;;;;;;;;;;;;;8.07;38.88;100824.47;4427989;32;19981;-77
2022/03/25 04:09:37;;;;;;;;;;;;;;;8.43;38.04;100826.84;4429482;32;20009;-75
2022/03/25 04:12:04;;;;;;;;;;;;;;;8.19;38.78;100824.97;4429292;32;19985;-77
2022/03/25 04:14:31;;;;;;;;;;;;;;;8.23;38.54;100820.81;4444330;32;20000;-74
2022/03/25 04:16:58;;;;;;;;;;;;;;;7.75;39.88;100830.84;4444708;32;19985;-76
2022/03/25 04:19:25;;;;;;;;;;;;;;;7.91;39.08;100822.94;4444625;32;19997;-74
2022/03/25 04:21:52;;;;;;;;;;;;;;;7.88;39.25;100823.72;4444646;32;19981;-77
2022/03/25 04:24:18;;;;;;;;;;;;;;;8.07;38.79;100824.47;4443470;32;20742;-73
2022/03/25 04:26:45;;;;;;;;;;;;;;;8.02;38.74;100824.28;4443512;32;20022;-75
2022/03/25 04:29:12;;;;;;;;;;;;;;;8.09;38.64;100822.84;4444242;32;19981;-73
2022/03/25 04:31:39;;;;;;;;;;;;;;;8.19;37.92;100817.25;4444190;32;19999;-73
2022/03/25 04:34:06;;;;;;;;;;;;;;;8.29;37.76;100821.06;4443616;32;20380;-76
2022/03/25 04:36:34;;;;;;;;;;;;;;;8.27;38.04;100822.72;4443980;32;20552;-76
2022/03/25 04:39:01;;;;;;;;;;;;;;;8.25;38.26;100824.34;4444824;32;19974;-74
2022/03/25 04:41:28;;;;;;;;;;;;;;;8.14;38.62;100834.25;4430111;32;19993;-72
2022/03/25 04:43:55;;;;;;;;;;;;;;;8.01;38.66;100834.50;4444177;32;19989;-74
2022/03/25 04:46:21;;;;;;;;;;;;;;;8.09;39.08;100833.16;4443245;32;20770;-76
2022/03/25 04:48:49;;;;;;;;;;;;;;;8.04;38.74;100839.81;4443233;32;20000;-77
2022/03/25 04:51:15;;;;;;;;;;;;;;;8.28;38.05;100840.84;4444118;32;19981;-74
2022/03/25 04:53:42;;;;;;;;;;;;;;;8.28;38.19;100840.84;4443319;32;19981;-76
2022/03/25 04:56:09;;;;;;;;;;;;;;;8.24;37.99;100833.81;4443918;32;19984;-76
2022/03/25 04:58:35;;;;;;;;;;;;;;;8.36;37.85;100836.87;4444181;32;19985;-74
2022/03/25 05:01:02;;;;;;;;;;;;;;;8.35;37.85;100837.69;4443399;32;20004;-73
2022/03/25 05:03:29;;;;;;;;;;;;;;;8.27;38.34;100836.50;4427634;32;20507;-74
2022/03/25 05:05:57;;;;;;;;;;;;;;;8.16;38.66;100840.31;4437398;32;19999;-74
2022/03/25 05:08:23;;;;;;;;;;;;;;;8.25;38.43;100840.72;4443822;32;19989;-76
2022/03/25 05:10:51;;;;;;;;;;;;;;;8.26;38.87;100832.16;4439786;32;19981;-74
2022/03/25 05:13:33;;;;;;;;;;;;;;;8.29;39.61;100837.44;4442577;32;20383;-76
2022/03/25 05:16:00;;;;;;;;;;;;;;;8.21;39.92;100838.84;4443218;32;20704;-74
2022/03/25 05:18:27;;;;;;;;;;;;;;;8.37;39.04;100846.38;4443972;32;20032;-75
2022/03/25 05:20:54;;;;;;;;;;;;;;;8.29;39.82;100841.72;4443160;32;20625;-75
2022/03/25 05:23:22;;;;;;;;;;;;;;;8.32;40.12;100836.69;4442886;32;19989;-76
2022/03/25 05:25:49;;;;;;;;;;;;;;;8.54;39.33;100835.91;4442372;32;20146;-72
2022/03/25 05:28:17;;;;;;;;;;;;;;;8.69;39.38;100839.09;4443984;32;19985;-72
2022/03/25 05:30:44;;;;;;;;;;;;;;;8.59;38.96;100842.12;4444034;32;19986;-72
2022/03/25 05:33:11;;;;;;;;;;;;;;;8.84;38.52;100854.31;4443510;32;20373;-72
2022/03/25 05:35:38;;;;;;;;;;;;;;;8.82;39.02;100850.78;4442281;32;19973;-72
2022/03/25 05:38:08;;;;;;;;;;;;;;;8.89;39.42;100851.91;4442094;32;20100;-73
2022/03/25 05:40:34;;;;;;;;;;;;;;;8.97;40.20;100856.56;4441225;32;19981;-73
2022/03/25 05:43:02;;;;;;;;;;;;;;;9.11;38.39;100854.50;4429859;32;19995;-74
2022/03/25 05:45:30;;;;;;;;;;;;;;;9.36;37.84;100853.72;4442528;32;19988;-73
2022/03/25 05:47:57;;;;;;;;;;;;;;;9.53;37.62;100854.31;4441578;32;19985;-73
2022/03/25 05:50:24;;;;;;;;;;;;;;;9.64;37.18;100845.28;4443349;32;19997;-73
2022/03/25 05:52:50;;;;;;;;;;;;;;;9.77;37.92;100844.88;4108541;32;10003796;-74
2022/03/25 05:55:18;;;;;;;;;;;;;;;10.18;36.93;100853.19;4412179;32;19989;-74
2022/03/25 05:57:44;;;;;;;;;;;;;;;10.53;35.94;100850.94;4412083;32;20057;-73
2022/03/25 06:00:13;;;;;;;;;;;;;;;10.69;35.22;100845.41;4410775;32;20291;-74
2022/03/25 06:02:43;;;;;;;;;;;;;;;10.86;35.64;100845.06;4410595;32;20396;-73
2022/03/25 06:05:11;;;;;;;;;;;;;;;11.04;35.04;100845.62;4411030;32;19982;-73
2022/03/25 06:07:38;;;;;;;;;;;;;;;11.17;35.43;100847.75;4411736;32;19974;-73
2022/03/25 06:10:06;;;;;;;;;;;;;;;11.23;35.56;100846.16;4411222;32;20120;-71
2022/03/25 06:12:32;;;;;;;;;;;;;;;11.46;34.63;100844.25;4412417;32;20031;-73
2022/03/25 06:14:59;;;;;;;;;;;;;;;11.41;34.22;100844.09;4412334;32;19998;-73
2022/03/25 06:17:26;;;;;;;;;;;;;;;11.39;33.88;100848.34;4410853;32;20021;-71
2022/03/25 06:19:53;;;;;;;;;;;;;;;11.47;34.68;100840.81;4412009;32;20028;-73
2022/03/25 06:22:20;;;;;;;;;;;;;;;11.67;34.68;100843.97;4413330;32;20157;-73
2022/03/25 06:24:46;;;;;;;;;;;;;;;11.78;34.08;100850.34;4413023;32;20330;-72
2022/03/25 06:27:13;;;;;;;;;;;;;;;11.78;33.68;100852.94;4414504;32;19978;-72
2022/03/25 06:29:40;;;;;;;;;;;;;;;11.78;34.25;100852.94;4410420;32;20055;-72
2022/03/25 06:32:10;;;;;;;;;;;;;;;11.95;33.49;100853.41;4429321;32;20721;-72
2022/03/25 06:34:37;;;;;;;;;;;;;;;11.98;33.25;100851.78;4429695;32;19990;-73
2022/03/25 06:37:04;;;;;;;;;;;;;;;12.07;33.44;100857.22;4424065;32;19978;-70
2022/03/25 06:39:31;;;;;;;;;;;;;;;12.02;33.14;100852.72;4421667;32;20001;-70
2022/03/25 06:41:58;;;;;;;;;;;;;;;12.31;32.98;100850.87;4425751;32;19997;-71
2022/03/25 06:44:25;;;;;;;;;;;;;;;12.52;32.65;100846.22;4411695;32;19985;-71
2022/03/25 06:46:52;;;;;;;;;;;;;;;12.90;32.23;100854.06;4423430;32;19993;-71
2022/03/25 06:49:18;;;;;;;;;;;;;;;13.38;31.39;100855.13;4420932;32;19981;-69
2022/03/25 06:51:45;;;;;;;;;;;;;;;13.72;30.69;100851.50;4426772;32;19977;-71
2022/03/25 06:54:12;;;;;;;;;;;;;;;13.99;30.82;100848.53;4444087;32;20023;-72
2022/03/25 06:56:40;;;;;;;;;;;;;;;14.41;30.17;100855.31;4444281;32;20031;-70
2022/03/25 06:59:06;;;;;;;;;;;;;;;14.68;30.05;100854.94;4430097;32;19982;-72
2022/03/25 07:01:34;;;;;;;;;;;;;;;15.06;29.30;100860.72;4442328;32;20114;-71
2022/03/25 07:04:03;;;;;;;;;;;;;;;15.35;29.27;100858.50;4442230;32;20009;-71
2022/03/25 07:06:30;;;;;;;;;;;;;;;15.91;28.21;100861.78;4429244;32;20507;-71
2022/03/25 07:08:57;;;;;;;;;;;;;;;16.26;27.67;100857.78;4442720;32;20020;-71
2022/03/25 07:11:24;;;;;;;;;;;;;;;16.76;27.22;100863.47;4456888;32;20034;-72
2022/03/25 07:13:52;;;;;;;;;;;;;;;17.13;26.67;100855.00;4449756;32;20001;-70
2022/03/25 07:16:19;;;;;;;;;;;;;;;17.14;25.40;100861.97;4442495;32;19983;-71
2022/03/25 07:18:46;;;;;;;;;;;;;;;16.91;25.80;100864.44;4443367;32;20005;-70
2022/03/25 07:21:13;;;;;;;;;;;;;;;16.49;25.81;100867.56;4442997;32;20000;-71
2022/03/25 07:23:40;;;;;;;;;;;;;;;16.56;26.10;100861.56;4429826;32;19989;-70
2022/03/25 07:26:07;;;;;;;;;;;;;;;16.70;25.99;100865.13;4445863;32;20747;-74
2022/03/25 07:28:34;;;;;;;;;;;;;;;17.13;26.00;100868.09;4425799;32;746949;-72
2022/03/25 07:31:02;;;;;;;;;;;;;;;17.16;25.00;100865.44;4444930;32;20542;-73
2022/03/25 07:33:28;;;;;;;;;;;;;;;17.31;25.05;100869.03;4458116;32;20021;-72
2022/03/25 07:35:56;;;;;;;;;;;;;;;17.02;25.71;100867.13;4459968;32;20609;-71
2022/03/25 07:38:23;;;;;;;;;;;;;;;17.80;24.69;100869.25;4432456;32;20234;-72
2022/03/25 07:40:50;;;;;;;;;;;;;;;17.99;24.68;100871.03;4458606;32;19991;-72
2022/03/25 07:43:16;;;;;;;;;;;;;;;18.05;24.16;100865.81;4443089;32;20396;-72
2022/03/25 07:45:44;;;;;;;;;;;;;;;18.08;24.16;100864.97;4444283;32;19977;-72
2022/03/25 07:48:11;;;;;;;;;;;;;;;18.40;24.32;100867.63;4442076;32;20007;-72
2022/03/25 07:50:38;;;;;;;;;;;;;;;18.29;24.15;100874.63;4443261;32;19993;-70
2022/03/25 07:53:05;;;;;;;;;;;;;;;18.85;23.90;100873.75;4419302;32;20380;-73
2022/03/25 07:55:32;;;;;;;;;;;;;;;18.83;24.11;100872.91;4460120;32;20362;-71
2022/03/25 07:57:59;;;;;;;;;;;;;;;19.37;23.53;100870.13;4452995;32;20041;-72
2022/03/25 08:00:26;;;;;;;;;;;;;;;18.84;23.82;100874.63;4446090;32;20008;-71
2022/03/25 08:02:53;;;;;;;;;;;;;;;19.18;23.32;100877.22;4414518;32;20024;-71
2022/03/25 08:05:20;;;;;;;;;;;;;;;18.97;23.27;100876.34;4402359;32;20482;-71
2022/03/25 08:07:48;;;;;;;;;;;;;;;18.88;24.24;100875.50;4450405;32;20004;-71
2022/03/25 08:10:22;;;;;;;;;;;;;;;19.01;23.40;100872.84;4431446;32;20357;-71
2022/03/25 08:12:50;;;;;;;;;;;;;;;18.90;22.74;100879.00;4450792;32;19981;-71
2022/03/25 08:15:18;;;;;;;;;;;;;;;19.02;23.54;100869.38;4445816;32;19985;-72
2022/03/25 08:17:45;;;;;;;;;;;;;;;19.38;23.97;100872.75;4451287;32;20084;-72
2022/03/25 08:20:12;;;;;;;;;;;;;;;20.00;23.18;100862.84;4444402;32;20038;-71
2022/03/25 08:22:40;;;;;;;;;;;;;;;19.71;21.91;100865.66;4426632;32;20753;-72
2022/03/25 08:27:58;;;;;;;;;;;;;;;19.17;23.32;100872.81;4414312;32;19985;-72
2022/03/25 08:30:26;;;;;;;;;;;;;;;19.18;22.77;100864.94;4429194;32;19992;-73
2022/03/25 08:32:56;;;;;;;;;;;;;;;19.52;23.79;100859.56;4400263;32;20004;-73
2022/03/25 08:35:24;;;;;;;;;;;;;;;19.21;22.90;100869.31;4430094;32;19996;-72
2022/03/25 08:37:53;;;;;;;;;;;;;;;19.33;22.13;100873.66;4417319;32;19993;-73
2022/03/25 08:40:21;;;;;;;;;;;;;;;19.76;22.03;100866.50;4440648;32;20080;-72
2022/03/25 08:42:48;;;;;;;;;;;;;;;19.83;22.40;100870.84;4430106;32;20003;-73
2022/03/25 08:45:16;;;;;;;;;;;;;;;19.79;22.47;100863.87;4442675;32;20022;-76
2022/03/25 08:47:44;;;;;;;;;;;;;;;19.70;21.83;100862.16;4443218;32;19996;-72
2022/03/25 08:50:12;;;;;;;;;;;;;;;20.25;23.80;100863.56;4447982;32;20034;-74
2022/03/25 08:52:40;;;;;;;;;;;;;;;20.43;21.45;100868.69;4451047;32;20270;-73
2022/03/25 08:55:08;;;;;;;;;;;;;;;20.34;21.87;100863.50;4447705;32;20624;-75
2022/03/25 08:57:35;;;;;;;;;;;;;;;20.62;20.70;100866.81;4455328;32;20045;-75
2022/03/25 09:00:02;;;;;;;;;;;;;;;20.70;21.62;100866.72;4441212;32;20096;-74
2022/03/25 09:02:33;;;;;;;;;;;;;;;20.35;22.20;100865.22;4439825;32;20331;-74
2022/03/25 09:05:00;;;;;;;;;;;;;;;20.50;22.38;100868.66;4444257;32;19980;-73
2022/03/25 09:07:27;;;;;;;;;;;;;;;20.38;20.61;100866.97;4444228;32;20090;-74
2022/03/25 09:09:54;;;;;;;;;;;;;;;20.83;20.06;100863.09;4402618;32;20572;-75
2022/03/25 09:12:21;;;;;;;;;;;;;;;20.63;21.50;100865.06;4406654;32;20024;-74
2022/03/25 09:14:47;;;;;;;;;;;;;;;20.13;21.28;100863.63;4412992;32;20326;-75
2022/03/25 09:17:14;;;;;;;;;;;;;;;20.57;20.88;100859.84;4433128;32;20015;-75
2022/03/25 09:19:45;;;;;;;;;;;;;;;20.17;21.66;100860.13;4444407;32;20551;-75
2022/03/25 09:22:12;;;;;;;;;;;;;;;20.59;20.53;100863.34;4443467;32;20038;-72
2022/03/25 09:24:39;;;;;;;;;;;;;;;20.90;21.86;100859.53;4443873;32;19978;-74
2022/03/25 09:27:07;;;;;;;;;;;;;;;20.86;22.13;100854.31;4443970;32;19989;-72
2022/03/25 09:29:34;;;;;;;;;;;;;;;20.73;21.46;100865.84;4443898;32;20030;-73
2022/03/25 09:32:01;;;;;;;;;;;;;;;20.57;21.57;100854.56;4442349;32;20934;-73
2022/03/25 09:37:35;;;;;;;;;;;;;;;21.30;19.83;100853.81;4443487;32;19985;-72
2022/03/25 09:40:06;;;;;;;;;;;;;;;20.81;21.30;100854.37;4444242;32;19989;-72
2022/03/25 09:42:33;;;;;;;;;;;;;;;20.87;21.86;100854.31;4443018;32;19981;-73
2022/03/25 09:45:01;;;;;;;;;;;;;;;20.66;20.86;100850.09;4443748;32;19978;-72
2022/03/25 09:47:30;;;;;;;;;;;;;;;21.07;22.52;100845.31;4442221;32;19989;-72
2022/03/25 09:49:57;;;;;;;;;;;;;;;20.55;23.33;100851.97;4442274;32;19981;-73
2022/03/25 09:52:26;;;;;;;;;;;;;;;20.68;21.24;100858.00;4443158;32;19977;-72
2022/03/25 09:55:13;;;;;;;;;;;;;;;21.27;19.60;100847.72;4441575;32;19995;-72
2022/03/25 09:57:40;;;;;;;;;;;;;;;21.76;19.25;100848.03;4442372;32;20008;-73
2022/03/25 10:00:08;;;;;;;;;;;;;;;21.36;20.12;100837.13;4441868;32;19988;-73
2022/03/25 10:02:37;;;;;;;;;;;;;;;21.44;21.45;100834.38;4441416;32;19993;-73
2022/03/25 10:05:20;;;;;;;;;;;;;;;21.41;22.44;100834.41;4443589;32;20329;-72
2022/03/25 10:07:47;;;;;;;;;;;;;;;22.07;20.41;100826.47;4443449;32;20038;-72
2022/03/25 10:10:15;;;;;;;;;;;;;;;21.00;21.96;100828.72;4445566;32;20310;-72
2022/03/25 10:12:43;;;;;;;;;;;;;;;20.97;21.54;100827.88;4445108;32;20003;-72
2022/03/25 10:15:11;;;;;;;;;;;;;;;21.53;21.62;100810.53;4437599;32;20011;-72
2022/03/25 10:17:48;;;;;;;;;;;;;;;21.70;20.42;100816.47;4444657;32;20052;-72
2022/03/25 10:20:15;;;;;;;;;;;;;;;20.64;21.42;100809.81;4444001;32;19995;-71
2022/03/25 10:22:57;;;;;;;;;;;;;;;20.98;21.57;100808.56;4444273;32;20004;-72
2022/03/25 10:25:42;;;;;;;;;;;;;;;21.13;21.13;100808.41;4438855;32;20026;-73
2022/03/25 10:28:19;;;;;;;;;;;;;;;20.55;21.50;100799.37;4445468;32;20311;-73
2022/03/25 10:30:48;;;;;;;;;;;;;;;20.40;23.01;100810.84;4438518;32;19992;-73
2022/03/25 10:33:22;;;;;;;;;;;;;;;21.03;19.54;100788.34;4442057;32;20376;-72
2022/03/25 10:35:53;;;;;;;;;;;;;;;21.36;20.97;100793.19;4444958;32;19996;-72
2022/03/25 10:38:21;;;;;;;;;;;;;;;21.41;20.75;100792.25;4444807;32;19981;-72
2022/03/25 10:40:49;;;;;;;;;;;;;;;21.65;20.27;100786.66;4445011;32;19978;-73
2022/03/25 10:43:16;;;;;;;;;;;;;;;22.00;19.18;100798.44;4444689;32;19984;-73
2022/03/25 10:45:43;;;;;;;;;;;;;;;22.18;18.09;100792.91;4445313;32;19977;-70
2022/03/25 10:48:20;;;;;;;;;;;;;;;21.53;21.24;100786.84;4442152;32;20031;-69
2022/03/25 10:50:57;;;;;;;;;;;;;;;22.05;20.58;100786.09;4442078;32;20019;-70
2022/03/25 10:53:24;;;;;;;;;;;;;;;22.29;20.42;100775.13;4442382;32;20061;-70
2022/03/25 10:55:55;;;;;;;;;;;;;;;22.64;18.23;100768.34;4445168;32;20045;-71
2022/03/25 10:58:21;;;;;;;;;;;;;;;22.90;17.66;100772.25;4444821;32;19996;-72
2022/03/25 11:00:48;;;;;;;;;;;;;;;22.66;17.84;100777.13;4445559;32;20320;-71
2022/03/25 11:03:16;;;;;;;;;;;;;;;22.80;17.72;100781.28;4445275;32;19986;-70
2022/03/25 11:05:43;;;;;;;;;;;;;;;22.83;17.73;100765.38;4430130;32;19973;-72
2022/03/25 11:08:10;;;;;;;;;;;;;;;22.31;19.45;100768.97;4443500;32;19977;-72
2022/03/25 11:10:38;;;;;;;;;;;;;;;22.37;20.16;100768.87;4443396;32;20290;-72
2022/03/25 11:13:05;;;;;;;;;;;;;;;22.56;19.11;100767.66;4443260;32;19997;-71
2022/03/25 11:15:32;;;;;;;;;;;;;;;22.80;17.42;100760.16;4444944;32;19977;-72
2022/03/25 11:17:59;;;;;;;;;;;;;;;22.28;19.98;100764.62;4444857;32;20004;-71
2022/03/25 11:20:26;;;;;;;;;;;;;;;22.43;20.02;100759.09;4443732;32;20349;-72
2022/03/25 11:23:05;;;;;;;;;;;;;;;21.56;21.44;100755.19;4444010;32;20679;-72
2022/03/25 11:25:34;;;;;;;;;;;;;;;21.80;20.67;100749.53;4443962;32;19969;-70
2022/03/25 11:28:06;;;;;;;;;;;;;;;21.76;18.99;100755.78;4443779;32;20042;-72
2022/03/25 11:30:35;;;;;;;;;;;;;;;22.25;19.27;100746.22;4444945;32;20007;-73
2022/03/25 11:33:06;;;;;;;;;;;;;;;22.08;19.91;100743.84;4433082;32;19989;-72
2022/03/25 11:35:35;;;;;;;;;;;;;;;22.83;18.07;100734.56;4430466;32;19985;-71
2022/03/25 11:38:14;;;;;;;;;;;;;;;22.47;20.67;100736.16;4430596;32;20034;-73
2022/03/25 11:40:42;;;;;;;;;;;;;;;22.02;20.10;100738.66;4444809;32;20022;-72
2022/03/25 11:43:34;;;;;;;;;;;;;;;22.26;18.86;100738.25;4444424;32;20313;-71
2022/03/25 11:46:03;;;;;;;;;;;;;;;22.67;18.96;100728.72;4440064;32;19994;-72
2022/03/25 11:48:30;;;;;;;;;;;;;;;23.06;18.99;100726.19;4444147;32;19989;-72
2022/03/25 11:50:57;;;;;;;;;;;;;;;22.93;20.15;100724.69;4444179;32;20468;-72
2022/03/25 11:53:24;;;;;;;;;;;;;;;22.53;21.19;100714.94;4442202;32;20000;-73
2022/03/25 11:56:06;;;;;;;;;;;;;;;23.36;17.68;100707.94;4444394;32;19977;-73
2022/03/25 11:58:36;;;;;;;;;;;;;;;23.21;18.02;100719.72;4444880;32;19989;-72
2022/03/25 12:01:20;;;;;;;;;;;;;;;23.37;18.34;100714.97;4430986;32;20248;-73
2022/03/25 12:03:49;;;;;;;;;;;;;;;22.94;19.37;100718.50;4444656;32;19981;-74
2022/03/25 12:06:17;;;;;;;;;;;;;;;22.42;19.51;100708.97;4444051;32;19985;-71
2022/03/25 12:09:00;;;;;;;;;;;;;;;22.47;19.73;100710.63;4444470;32;19992;-72
2022/03/25 12:11:47;;;;;;;;;;;;;;;22.95;19.57;100707.06;4444158;32;19989;-73
2022/03/25 12:14:13;;;;;;;;;;;;;;;23.16;18.41;100711.87;4442687;32;20027;-74
2022/03/25 12:16:51;;;;;;;;;;;;;;;22.32;20.06;100704.75;4444546;32;19996;-73
2022/03/25 12:19:28;;;;;;;;;;;;;;;22.97;18.00;100699.97;4444163;32;19989;-72
2022/03/25 12:22:02;;;;;;;;;;;;;;;23.27;17.46;100694.94;4444267;32;19989;-73
2022/03/25 12:24:30;;;;;;;;;;;;;;;22.55;20.64;100702.56;4441206;32;19997;-73
2022/03/25 12:27:00;;;;;;;;;;;;;;;22.11;19.99;100701.56;4443955;32;19977;-72
2022/03/25 12:29:31;;;;;;;;;;;;;;;22.21;19.39;100700.56;4444292;32;20270;-72
2022/03/25 12:32:04;;;;;;;;;;;;;;;21.96;20.87;100693.94;4430334;32;20000;-73
2022/03/25 12:34:36;;;;;;;;;;;;;;;22.32;19.62;100694.22;4444032;32;19993;-72
2022/03/25 12:37:04;;;;;;;;;;;;;;;22.80;19.30;100692.38;4430344;32;20034;-72
2022/03/25 12:39:30;;;;;;;;;;;;;;;22.27;19.44;100695.19;4443079;32;20034;-72
2022/03/25 12:41:57;;;;;;;;;;;;;;;21.79;19.49;100681.94;4444385;32;20255;-73
2022/03/25 12:44:28;;;;;;;;;;;;;;;22.47;17.58;100683.38;4443105;32;19977;-73
2022/03/25 12:46:59;;;;;;;;;;;;;;;22.70;16.64;100675.88;4443108;32;20026;-72
2022/03/25 12:49:26;;;;;;;;;;;;;;;22.86;17.87;100675.56;4443752;32;19989;-73
2022/03/25 12:52:00;;;;;;;;;;;;;;;23.02;17.39;100671.72;4444733;32;20030;-72